Time;durP1;ratioP1;P1;durP2;ratioP2;P2;SDS_P1;SDS_P2;PMS_P1;PMS_P2;Temp;Humidity;BMP_temperature;BMP_pressure;BME280_temperature;BME280_humidity;BME280_pressure;Samples;Min_cycle;Max_cycle;Signal;HPM_P1;HPM_P2
2023/04/02 00:00:10;;;;;;;9.43;4.72;;;4.80;99.90;;;;;;5055171;28;20489;-77
2023/04/02 00:02:55;;;;;;;8.52;5.43;;;4.70;99.90;;;;;;5072271;28;20063;-78
2023/04/02 00:05:28;;;;;;;7.30;4.40;;;4.30;99.90;;;;;;5073319;28;20489;-78
2023/04/02 00:07:59;;;;;;;11.15;5.40;;;4.20;99.90;;;;;;5079734;28;20069;-77
2023/04/02 00:10:51;;;;;;;9.00;5.05;;;4.30;99.90;;;;;;5071437;28;20793;-78
2023/04/02 00:13:21;;;;;;;12.02;5.28;;;4.30;99.90;;;;;;5088392;28;20138;-77
2023/04/02 00:15:50;;;;;;;7.63;4.80;;;4.40;99.90;;;;;;5074650;28;20051;-78
2023/04/02 00:18:19;;;;;;;8.55;4.72;;;4.20;99.90;;;;;;5091046;28;20560;-78
2023/04/02 00:20:52;;;;;;;7.45;4.10;;;4.40;99.90;;;;;;5071504;28;20079;-78
2023/04/02 00:23:18;;;;;;;7.68;4.40;;;4.20;99.90;;;;;;5056219;28;20362;-78
2023/04/02 00:25:45;;;;;;;8.23;4.15;;;4.70;99.90;;;;;;5074540;28;20044;-81
2023/04/02 00:28:22;;;;;;;11.10;4.05;;;4.10;99.90;;;;;;5061215;28;20109;-77
2023/04/02 00:30:51;;;;;;;7.35;3.60;;;4.60;99.90;;;;;;5075327;28;20044;-78
2023/04/02 00:33:20;;;;;;;8.85;3.95;;;4.20;99.90;;;;;;5054317;28;20052;-78
2023/04/02 00:35:49;;;;;;;6.93;3.53;;;4.10;99.90;;;;;;5074609;28;20052;-79
2023/04/02 00:38:34;;;;;;;9.93;3.75;;;4.10;99.90;;;;;;5091564;28;20040;-78
2023/04/02 00:41:05;;;;;;;7.97;3.95;;;4.30;99.90;;;;;;5068591;28;20788;-78
2023/04/02 00:43:35;;;;;;;9.18;3.40;;;4.10;99.90;;;;;;5077723;28;20043;-78
2023/04/02 00:46:09;;;;;;;12.10;3.85;;;4.00;99.90;;;;;;5077802;28;20162;-78
2023/04/02 00:48:49;;;;;;;7.60;3.58;;;4.00;99.90;;;;;;5065230;28;20051;-78
2023/04/02 00:51:21;;;;;;;8.02;3.60;;;4.30;99.90;;;;;;5056798;28;20044;-78
2023/04/02 00:53:50;;;;;;;6.60;3.65;;;4.30;99.90;;;;;;5065140;28;20162;-80
2023/04/02 00:56:44;;;;;;;4.55;2.90;;;4.00;99.90;;;;;;5070619;28;20047;-77
2023/04/02 00:59:35;;;;;;;7.22;3.13;;;3.90;99.90;;;;;;5051355;28;20098;-78
2023/04/02 01:02:13;;;;;;;5.80;3.03;;;3.80;99.90;;;;;;5059689;28;20048;-78
2023/04/02 01:04:40;;;;;;;6.63;3.35;;;4.20;99.90;;;;;;5059652;28;20045;-78
2023/04/02 01:07:09;;;;;;;6.47;3.83;;;3.80;99.90;;;;;;5066876;28;20044;-77
2023/04/02 01:09:54;;;;;;;7.50;3.50;;;3.40;99.90;;;;;;5064507;28;20072;-78
2023/04/02 01:12:32;;;;;;;8.35;3.60;;;3.60;99.90;;;;;;5052271;28;20148;-78
2023/04/02 01:15:06;;;;;;;6.90;3.88;;;3.00;99.90;;;;;;5053856;28;20475;-78
2023/04/02 01:17:47;;;;;;;8.70;3.55;;;3.10;99.90;;;;;;5072122;28;20040;-78
2023/04/02 01:20:50;;;;;;;7.50;3.83;;;2.80;99.90;;;;;;5060374;28;20055;-79
2023/04/02 01:23:33;;;;;;;13.80;3.83;;;2.80;99.90;;;;;;5075721;28;20052;-78
2023/04/02 01:26:19;;;;;;;9.05;3.47;;;2.50;99.90;;;;;;5044802;28;20048;-78
2023/04/02 01:28:53;;;;;;;10.40;3.90;;;2.90;99.90;;;;;;5031886;28;20066;-78
2023/04/02 01:31:21;;;;;;;7.80;3.25;;;2.50;99.90;;;;;;5066931;28;20047;-78
2023/04/02 01:33:47;;;;;;;9.77;3.65;;;2.40;99.90;;;;;;5072012;28;20051;-78
2023/04/02 01:36:30;;;;;;;9.77;3.40;;;2.30;99.90;;;;;;5043991;28;20067;-78
2023/04/02 01:39:18;;;;;;;9.23;3.72;;;2.50;99.90;;;;;;5061086;28;20059;-78
2023/04/02 01:42:04;;;;;;;5.85;3.03;;;2.40;99.90;;;;;;5070042;28;20051;-78
2023/04/02 01:44:51;;;;;;;6.80;2.95;;;2.30;99.90;;;;;;5085333;28;20048;-78
2023/04/02 01:47:21;;;;;;;6.10;2.92;;;2.30;99.90;;;;;;5061063;28;20052;-78
2023/04/02 01:49:47;;;;;;;5.57;2.67;;;2.20;1.00;;;;;;5073483;28;20493;-78
2023/04/02 01:52:18;;;;;;;7.55;2.80;;;2.10;1.00;;;;;;5080860;28;20044;-78
2023/04/02 01:54:46;;;;;;;6.20;2.90;;;2.10;1.00;;;;;;5054143;28;20040;-78
2023/04/02 01:57:12;;;;;;;8.35;2.97;;;2.10;1.00;;;;;;5070745;28;20051;-78
2023/04/02 01:59:39;;;;;;;7.13;2.70;;;1.80;1.00;;;;;;5057542;28;20079;-78
2023/04/02 02:02:09;;;;;;;8.07;3.08;;;2.40;1.00;;;;;;5051396;28;20067;-78
2023/04/02 02:04:35;;;;;;;7.90;2.80;;;1.80;99.90;;;;;;5051525;28;20052;-78
2023/04/02 02:07:03;;;;;;;6.88;3.58;;;2.60;99.90;;;;;;5053732;28;20048;-78
2023/04/02 02:09:35;;;;;;;9.85;2.97;;;1.70;99.90;;;;;;5076139;28;20123;-78
2023/04/02 02:12:03;;;;;;;7.50;3.20;;;2.50;99.90;;;;;;5074271;28;20040;-78
2023/04/02 02:14:30;;;;;;;6.15;3.05;;;1.60;1.00;;;;;;5054396;28;20096;-77
2023/04/02 02:17:01;;;;;;;5.85;2.90;;;2.30;1.00;;;;;;5061971;28;20086;-78
2023/04/02 02:19:50;;;;;;;9.60;2.97;;;1.50;1.00;;;;;;5052311;28;20505;-78
2023/04/02 02:22:29;;;;;;;5.32;2.97;;;1.60;1.00;;;;;;5036093;28;20080;-78
2023/04/02 02:24:58;;;;;;;7.40;2.83;;;1.60;1.00;;;;;;5054494;28;20048;-78
2023/04/02 02:27:24;;;;;;;5.57;2.72;;;1.50;1.00;;;;;;5082903;28;20059;-79
2023/04/02 02:30:11;;;;;;;9.35;2.67;;;1.40;1.00;;;;;;5071344;28;20458;-78
2023/04/02 02:32:46;;;;;;;5.97;2.47;;;1.50;1.00;;;;;;5071773;28;20048;-78
2023/04/02 02:35:22;;;;;;;5.80;2.55;;;1.40;1.00;;;;;;5059414;28;20040;-78
2023/04/02 02:38:29;;;;;;;7.05;2.40;;;1.40;1.00;;;;;;5061670;28;20523;-78
2023/04/02 02:41:01;;;;;;;4.13;2.10;;;1.20;1.00;;;;;;5025735;28;20107;-78
2023/04/02 02:43:27;;;;;;;5.15;2.13;;;1.20;1.00;;;;;;5073247;28;20368;-78
2023/04/02 02:45:55;;;;;;;7.70;2.03;;;1.40;1.00;;;;;;5073154;28;20393;-77
2023/04/02 02:48:35;;;;;;;7.88;2.17;;;1.40;1.00;;;;;;5080211;28;20460;-78
2023/04/02 02:51:06;;;;;;;4.95;1.83;;;1.20;1.00;;;;;;5067749;28;20137;-79
2023/04/02 02:53:32;;;;;;;5.95;1.73;;;1.10;1.00;;;;;;5078448;28;20142;-78
2023/04/02 02:56:00;;;;;;;5.75;1.98;;;1.40;1.00;;;;;;5051858;28;20218;-78
2023/04/02 02:58:30;;;;;;;4.10;1.85;;;1.60;99.90;;;;;;5084585;28;20650;-78
2023/04/02 03:00:56;;;;;;;3.05;1.58;;;1.30;99.90;;;;;;5058319;28;20056;-77
2023/04/02 03:03:26;;;;;;;6.18;2.17;;;1.30;1.00;;;;;;5057958;28;20050;-78
2023/04/02 03:06:00;;;;;;;5.28;1.75;;;1.90;99.90;;;;;;5064774;28;20048;-77
2023/04/02 03:08:33;;;;;;;7.55;2.03;;;1.10;99.90;;;;;;5071715;28;20051;-77
2023/04/02 03:11:09;;;;;;;4.30;1.60;;;1.40;99.90;;;;;;5055546;28;20416;-78
2023/04/02 03:13:37;;;;;;;3.97;2.03;;;1.50;99.90;;;;;;5068784;28;20052;-77
2023/04/02 03:16:11;;;;;;;5.95;2.05;;;1.40;99.90;;;;;;5071368;28;20431;-77
2023/04/02 03:19:15;;;;;;;4.53;1.40;;;1.50;99.90;;;;;;5066225;28;20649;-78
2023/04/02 03:22:02;;;;;;;2.40;1.10;;;1.20;99.90;;;;;;5087875;28;20131;-77
2023/04/02 03:24:45;;;;;;;6.32;1.98;;;1.40;99.90;;;;;;5070403;28;20659;-77
2023/04/02 03:27:19;;;;;;;4.85;2.08;;;1.30;99.90;;;;;;5071056;28;20047;-78
2023/04/02 03:30:10;;;;;;;4.90;1.92;;;1.90;99.90;;;;;;5075329;28;20093;-78
2023/04/02 03:32:40;;;;;;;4.65;1.70;;;2.10;99.90;;;;;;5014113;28;20059;-78
2023/04/02 03:35:21;;;;;;;5.25;1.80;;;2.40;99.90;;;;;;5071797;28;20075;-78
2023/04/02 03:37:54;;;;;;;7.85;2.50;;;1.60;99.90;;;;;;5085648;28;20103;-78
2023/04/02 03:40:27;;;;;;;4.95;1.80;;;1.40;99.90;;;;;;5070720;28;20052;-79
2023/04/02 03:43:19;;;;;;;6.60;1.85;;;1.50;99.90;;;;;;5084357;28;20079;-77
2023/04/02 03:45:50;;;;;;;8.05;1.90;;;1.60;99.90;;;;;;5054806;28;20051;-78
2023/04/02 03:48:38;;;;;;;5.97;1.80;;;1.70;99.90;;;;;;5092630;28;20404;-78
2023/04/02 03:51:21;;;;;;;4.57;1.40;;;2.10;99.90;;;;;;5044835;28;20521;-78
2023/04/02 03:53:47;;;;;;;4.97;1.40;;;1.60;99.90;;;;;;5073614;28;20051;-78
2023/04/02 03:56:30;;;;;;;3.03;1.30;;;2.20;99.90;;;;;;5060042;28;20035;-80
2023/04/02 03:59:35;;;;;;;6.38;1.33;;;1.50;99.90;;;;;;5056846;28;20053;-78
2023/04/02 04:02:25;;;;;;;3.67;1.77;;;1.20;99.90;;;;;;5063073;28;20048;-78
2023/04/02 04:04:53;;;;;;;5.72;1.40;;;1.40;99.90;;;;;;5055748;28;20047;-77
2023/04/02 04:07:33;;;;;;;2.00;1.13;;;1.20;99.90;;;;;;5053391;28;20054;-77
2023/04/02 04:10:01;;;;;;;3.25;1.50;;;1.10;99.90;;;;;;5068861;28;20039;-77
2023/04/02 04:12:31;;;;;;;5.30;1.63;;;1.60;99.90;;;;;;5052194;28;20112;-80
2023/04/02 04:15:14;;;;;;;2.70;1.45;;;0.90;99.90;;;;;;5077031;28;20048;-77
2023/04/02 04:18:09;;;;;;;6.93;1.20;;;0.80;99.90;;;;;;5070501;28;20046;-78
2023/04/02 04:20:35;;;;;;;4.43;1.00;;;0.70;99.90;;;;;;5073387;28;20233;-78
2023/04/02 04:23:09;;;;;;;2.10;1.00;;;0.50;99.90;;;;;;5053751;28;20036;-78
2023/04/02 04:25:35;;;;;;;3.67;1.02;;;0.60;99.90;;;;;;5082741;28;20058;-79
2023/04/02 04:28:40;;;;;;;6.18;2.00;;;0.60;99.90;;;;;;5065620;28;20051;-79
2023/04/02 04:31:20;;;;;;;4.80;1.00;;;0.60;99.90;;;;;;5055674;28;20060;-77
2023/04/02 04:33:53;;;;;;;2.60;0.98;;;0.70;99.90;;;;;;5062931;28;20108;-78
2023/04/02 04:36:27;;;;;;;3.63;0.88;;;0.70;99.90;;;;;;5088407;28;20050;-79
2023/04/02 04:38:58;;;;;;;3.90;0.90;;;1.20;99.90;;;;;;5072700;28;20043;-78
2023/04/02 04:41:36;;;;;;;3.58;1.17;;;0.60;99.90;;;;;;5070407;28;20051;-78
2023/04/02 04:44:05;;;;;;;4.10;1.10;;;0.60;1.00;;;;;;5052587;28;20097;-78
2023/04/02 04:47:20;;;;;;;6.95;1.42;;;0.20;1.00;;;;;;5071464;28;20100;-78
2023/04/02 04:49:53;;;;;;;4.57;1.20;;;0.50;1.00;;;;;;5044910;28;20060;-78
2023/04/02 04:52:34;;;;;;;4.03;1.10;;;1.10;1.00;;;;;;5060695;28;20053;-80
2023/04/02 04:55:00;;;;;;;4.47;1.40;;;0.20;1.00;;;;;;5075842;28;20044;-78
2023/04/02 04:57:47;;;;;;;4.32;1.23;;;0.40;1.00;;;;;;5056769;28;20055;-78
2023/04/02 05:00:31;;;;;;;3.08;1.25;;;0.40;1.00;;;;;;5100487;28;20105;-79
2023/04/02 05:03:12;;;;;;;4.70;1.00;;;0.90;1.00;;;;;;5066499;28;20035;-78
2023/04/02 05:05:39;;;;;;;3.17;0.93;;;0.20;1.00;;;;;;5055463;28;20412;-78
2023/04/02 05:08:27;;;;;;;5.88;1.17;;;0.70;1.00;;;;;;5065346;28;20054;-79
2023/04/02 05:11:00;;;;;;;4.13;1.20;;;0.20;1.00;;;;;;5076798;28;20440;-78
2023/04/02 05:13:48;;;;;;;3.00;1.05;;;0.30;1.00;;;;;;5086513;28;20121;-78
2023/04/02 05:16:25;;;;;;;5.97;1.40;;;0.30;1.00;;;;;;5057395;28;20075;-78
2023/04/02 05:19:11;;;;;;;4.63;1.60;;;0.30;1.00;;;;;;5060667;28;20401;-78
2023/04/02 05:21:52;;;;;;;7.20;1.25;;;0.20;1.00;;;;;;5080122;28;20511;-78
2023/04/02 05:24:44;;;;;;;3.17;1.15;;;0.50;1.00;;;;;;5072680;28;20047;-78
2023/04/02 05:27:42;;;;;;;5.82;1.00;;;0.40;1.00;;;;;;5066121;28;20051;-78
2023/04/02 05:30:28;;;;;;;3.92;1.08;;;0.10;1.00;;;;;;5058794;28;20032;-78
2023/04/02 05:33:03;;;;;;;2.20;1.20;;;0.70;1.00;;;;;;5051487;28;20086;-78
2023/04/02 05:35:40;;;;;;;4.65;1.42;;;0.10;1.00;;;;;;5072813;28;20040;-79
2023/04/02 05:38:06;;;;;;;2.65;1.05;;;0.50;1.00;;;;;;5056401;28;20126;-77
2023/04/02 05:40:40;;;;;;;3.80;1.20;;;0.20;1.00;;;;;;5060218;28;20044;-78
2023/04/02 05:43:12;;;;;;;6.57;0.95;;;0.30;1.00;;;;;;5076477;28;20109;-78
2023/04/02 05:45:41;;;;;;;6.10;1.33;;;0.60;1.00;;;;;;5073721;28;20127;-78
2023/04/02 05:48:17;;;;;;;2.85;0.73;;;0.20;1.00;;;;;;5075616;28;20131;-77
2023/04/02 05:50:54;;;;;;;6.82;1.23;;;0.20;1.00;;;;;;5085001;28;20040;-80
2023/04/02 05:53:33;;;;;;;5.22;1.42;;;0.50;1.00;;;;;;5061411;28;20286;-78
2023/04/02 05:56:18;;;;;;;3.65;1.05;;;0.40;1.00;;;;;;5061104;28;20550;-76
2023/04/02 05:58:50;;;;;;;2.45;0.98;;;0.40;1.00;;;;;;5058795;28;20052;-77
2023/04/02 06:01:32;;;;;;;4.82;0.80;;;0.70;1.00;;;;;;5058247;28;20056;-77
2023/04/02 06:04:25;;;;;;;3.72;1.25;;;0.70;1.00;;;;;;5062444;28;20048;-77
2023/04/02 06:06:55;;;;;;;3.00;1.10;;;0.90;1.00;;;;;;5071107;28;20079;-77
2023/04/02 06:09:26;;;;;;;4.85;0.90;;;1.10;1.00;;;;;;5060060;28;20155;-77
2023/04/02 06:12:06;;;;;;;4.32;1.45;;;1.10;1.00;;;;;;5070455;28;20048;-77
2023/04/02 06:14:31;;;;;;;2.10;0.80;;;1.40;1.00;;;;;;5070769;28;20052;-79
2023/04/02 06:16:57;;;;;;;5.82;0.98;;;1.80;1.00;;;;;;5073063;28;20384;-77
2023/04/02 06:19:28;;;;;;;7.95;1.20;;;2.30;99.90;;;;;;5070805;28;20090;-77
2023/04/02 06:22:06;;;;;;;4.85;1.27;;;1.80;99.90;;;;;;5062657;28;20084;-78
2023/04/02 06:24:33;;;;;;;6.30;1.20;;;1.80;99.90;;;;;;5056534;28;20141;-79
2023/04/02 06:27:07;;;;;;;4.32;1.10;;;1.80;99.90;;;;;;5074038;28;20120;-77
2023/04/02 06:29:39;;;;;;;4.65;0.88;;;1.90;99.90;;;;;;5081761;28;20084;-79
2023/04/02 06:32:10;;;;;;;4.72;1.00;;;2.10;99.90;;;;;;5082920;28;20375;-77
2023/04/02 06:34:38;;;;;;;1.92;1.00;;;2.10;99.90;;;;;;5043722;28;20044;-79
2023/04/02 06:37:11;;;;;;;5.85;1.27;;;2.30;99.90;;;;;;5073791;28;20070;-78
2023/04/02 06:39:37;;;;;;;2.88;0.82;;;2.20;99.90;;;;;;5079326;28;20048;-77
2023/04/02 06:42:10;;;;;;;3.38;1.00;;;2.30;99.90;;;;;;5057541;28;20067;-78
2023/04/02 06:44:37;;;;;;;3.17;0.85;;;2.10;99.90;;;;;;5062662;28;20080;-79
2023/04/02 06:47:26;;;;;;;4.75;1.00;;;2.20;95.50;;;;;;5048370;28;20063;-78
2023/04/02 06:50:12;;;;;;;3.65;1.10;;;2.60;94.40;;;;;;5057821;28;20056;-77
2023/04/02 06:52:41;;;;;;;;;;;2.30;99.90;;;;;;5072405;28;20078;-79
2023/04/02 06:55:29;;;;;;;2.67;0.77;;;2.20;19.10;;;;;;5057881;28;20041;-78
2023/04/02 06:57:54;;;;;;;3.38;0.80;;;2.20;41.20;;;;;;5078518;28;20044;-77
2023/04/02 07:00:40;;;;;;;5.70;1.38;;;2.20;99.90;;;;;;5046400;28;20531;-78
2023/04/02 07:03:22;;;;;;;3.17;2.88;;;2.30;99.90;;;;;;5060929;28;20748;-77
2023/04/02 07:05:48;;;;;;;7.22;1.17;;;2.20;93.30;;;;;;5057134;28;20051;-77
2023/04/02 07:08:13;;;;;;;2.25;1.05;;;2.90;99.90;;;;;;5069838;28;20097;-77
2023/04/02 07:10:39;;;;;;;5.97;1.15;;;2.20;99.90;;;;;;5039279;28;20078;-79
2023/04/02 07:13:05;;;;;;;4.40;1.02;;;2.70;99.90;;;;;;5054062;28;20035;-77
2023/04/02 07:15:31;;;;;;;3.40;1.58;;;2.40;99.90;;;;;;5051808;28;20127;-77
2023/04/02 07:17:58;;;;;;;4.40;1.17;;;3.10;99.90;;;;;;5069825;28;20126;-77
2023/04/02 07:20:28;;;;;;;3.95;1.05;;;2.50;90.40;;;;;;5051593;28;20044;-77
2023/04/02 07:22:54;;;;;;;2.53;0.85;;;2.30;99.90;;;;;;5086768;28;20056;-77
2023/04/02 07:25:20;;;;;;;2.53;0.88;;;3.00;87.30;;;;;;5062560;28;20480;-77
2023/04/02 07:27:47;;;;;;;3.08;1.02;;;2.80;99.90;;;;;;5064841;28;20148;-77
2023/04/02 07:30:12;;;;;;;2.35;0.98;;;3.00;99.60;;;;;;5059306;28;20123;-78
2023/04/02 07:32:38;;;;;;;4.70;1.35;;;2.70;99.90;;;;;;5051553;28;20120;-77
2023/04/02 07:35:04;;;;;;;3.90;1.33;;;3.50;24.10;;;;;;5045677;28;20119;-78
2023/04/02 07:37:30;;;;;;;4.80;1.25;;;2.80;99.90;;;;;;5083791;28;20097;-77
2023/04/02 07:39:56;;;;;;;2.75;0.90;;;2.60;99.90;;;;;;5053986;28;20762;-77
2023/04/02 07:42:22;;;;;;;4.47;1.08;;;2.70;1.00;;;;;;5072534;28;20075;-77
2023/04/02 07:44:47;;;;;;;4.68;0.93;;;3.20;1.00;;;;;;5057645;28;20044;-78
2023/04/02 07:47:13;;;;;;;6.97;0.95;;;3.20;2.00;;;;;;5082138;28;20442;-77
2023/04/02 07:49:39;;;;;;;2.45;0.93;;;3.10;1.90;;;;;;5071914;28;20146;-78
2023/04/02 07:52:05;;;;;;;3.35;0.93;;;3.40;1.00;;;;;;5053263;28;20051;-78
2023/04/02 07:54:31;;;;;;;3.10;1.02;;;3.20;1.00;;;;;;5088682;28;20036;-78
2023/04/02 07:56:57;;;;;;;4.78;0.88;;;3.70;1.00;;;;;;5070858;28;20106;-78
2023/04/02 07:59:22;;;;;;;1.35;0.80;;;3.30;1.00;;;;;;5054011;28;20083;-79
2023/04/02 08:01:48;;;;;;;3.03;0.88;;;3.40;99.90;;;;;;5065271;28;20174;-78
2023/04/02 08:04:21;;;;;;;3.65;0.70;;;3.70;1.00;;;;;;5073130;28;20052;-78
2023/04/02 08:06:48;;;;;;;2.22;1.08;;;3.90;99.90;;;;;;5058385;28;20044;-80
2023/04/02 08:09:15;;;;;;;2.85;1.10;;;4.20;99.90;;;;;;5065842;28;20079;-79
2023/04/02 08:11:41;;;;;;;2.78;0.80;;;4.40;99.90;;;;;;5070311;28;20047;-79
2023/04/02 08:14:10;;;;;;;1.85;0.95;;;4.30;99.90;;;;;;5069270;28;20059;-79
2023/04/02 08:16:49;;;;;;;6.40;1.13;;;4.40;99.90;;;;;;5086717;28;20047;-79
2023/04/02 08:19:15;;;;;;;5.35;0.95;;;4.40;99.90;;;;;;5070667;28;20058;-79
2023/04/02 08:21:41;;;;;;;3.08;1.00;;;4.50;99.90;;;;;;5039451;28;20075;-80
2023/04/02 08:24:07;;;;;;;4.00;1.13;;;4.90;99.90;;;;;;5070414;28;20044;-79
2023/04/02 08:26:33;;;;;;;5.53;1.10;;;5.00;99.90;;;;;;5065715;28;20059;-78
2023/04/02 08:28:59;;;;;;;3.05;0.80;;;4.20;99.90;;;;;;5056813;28;20377;-78
2023/04/02 08:31:24;;;;;;;1.85;0.80;;;4.70;99.90;;;;;;5075652;28;20048;-79
2023/04/02 08:33:50;;;;;;;2.78;1.25;;;4.50;99.90;;;;;;5050788;28;20081;-78
2023/04/02 08:36:17;;;;;;;3.28;1.08;;;4.50;99.90;;;;;;5085294;28;20048;-80
2023/04/02 08:38:43;;;;;;;4.20;1.20;;;4.90;99.90;;;;;;5079747;28;20040;-78
2023/04/02 08:41:21;;;;;;;1.80;0.80;;;4.40;99.90;;;;;;5059499;28;20070;-79
2023/04/02 08:44:04;;;;;;;4.60;1.58;;;4.20;99.90;;;;;;5070673;28;20060;-78
2023/04/02 08:46:33;;;;;;;1.38;0.80;;;4.20;99.90;;;;;;5068000;28;20184;-80
2023/04/02 08:49:02;;;;;;;3.33;1.10;;;4.10;99.90;;;;;;5058936;28;20048;-80
2023/04/02 08:51:33;;;;;;;3.55;1.02;;;4.20;99.90;;;;;;5062211;28;20044;-80
2023/04/02 08:54:08;;;;;;;2.25;0.50;;;4.30;99.90;;;;;;5074804;28;20078;-79
2023/04/02 08:56:59;;;;;;;2.25;0.90;;;4.20;99.90;;;;;;5069596;28;20073;-79
2023/04/02 08:59:33;;;;;;;2.63;0.98;;;4.90;99.90;;;;;;5064140;28;20055;-80
2023/04/02 09:02:21;;;;;;;2.63;0.82;;;4.20;99.90;;;;;;5064349;28;20090;-81
2023/04/02 09:04:47;;;;;;;6.43;1.20;;;4.30;99.90;;;;;;5076738;28;20116;-80
2023/04/02 09:07:15;;;;;;;2.50;0.68;;;3.90;99.90;;;;;;5061235;28;20040;-79
2023/04/02 09:09:42;;;;;;;4.85;0.80;;;4.10;99.90;;;;;;5077763;28;20698;-80
2023/04/02 09:12:31;;;;;;;2.50;1.10;;;4.20;99.90;;;;;;5067825;28;20040;-81
2023/04/02 09:15:09;;;;;;;3.10;0.90;;;5.10;99.90;;;;;;5050868;28;20052;-80
2023/04/02 09:17:36;;;;;;;3.13;0.88;;;4.50;99.90;;;;;;5069987;28;20394;-81
2023/04/02 09:20:23;;;;;;;3.58;0.90;;;4.80;99.90;;;;;;5051666;28;20107;-80
2023/04/02 09:22:50;;;;;;;3.25;0.82;;;4.70;99.90;;;;;;5068631;28;20044;-79
2023/04/02 09:25:20;;;;;;;3.58;1.00;;;5.00;99.90;;;;;;5035506;28;20634;-81
2023/04/02 09:27:49;;;;;;;3.05;0.82;;;4.90;99.90;;;;;;5052404;28;20056;-81
2023/04/02 09:30:28;;;;;;;3.28;1.00;;;4.90;99.90;;;;;;5083710;28;20071;-81
2023/04/02 09:32:56;;;;;;;4.32;1.15;;;5.10;99.90;;;;;;5073469;28;20070;-81
2023/04/02 09:35:27;;;;;;;3.30;1.00;;;5.50;99.90;;;;;;5067591;28;20073;-81
2023/04/02 09:38:16;;;;;;;3.60;0.90;;;5.30;99.90;;;;;;5078273;28;20494;-80
2023/04/02 09:40:45;;;;;;;2.25;1.00;;;5.30;99.90;;;;;;5067916;28;20044;-81
2023/04/02 09:43:14;;;;;;;6.68;1.13;;;6.30;99.90;;;;;;5051422;28;20042;-81
2023/04/02 09:45:43;;;;;;;3.00;0.90;;;7.50;99.90;;;;;;5084593;28;20040;-82
2023/04/02 09:48:43;;;;;;;2.33;0.75;;;8.40;99.90;;;;;;5067414;28;20507;-80
2023/04/02 09:51:13;;;;;;;3.38;1.15;;;9.60;1.00;;;;;;5066439;28;20066;-80
2023/04/02 09:54:02;;;;;;;2.33;1.00;;;10.20;11.90;;;;;;5067393;28;20058;-80
2023/04/02 09:56:34;;;;;;;2.40;0.80;;;10.80;1.00;;;;;;5057850;28;20085;-80
2023/04/02 09:59:14;;;;;;;3.20;0.93;;;11.20;1.00;;;;;;5058342;28;20064;-81
2023/04/02 10:01:48;;;;;;;4.32;0.90;;;11.60;1.00;;;;;;5063074;28;20052;-80
2023/04/02 10:04:43;;;;;;;3.90;0.70;;;12.10;1.00;;;;;;5048677;28;20137;-80
2023/04/02 10:07:35;;;;;;;2.97;0.70;;;12.60;1.00;;;;;;5072850;28;20140;-80
2023/04/02 10:10:16;;;;;;;2.83;0.65;;;13.00;1.00;;;;;;5081391;28;20131;-81
2023/04/02 10:12:45;;;;;;;2.28;0.70;;;13.30;1.00;;;;;;5059517;28;20079;-79
2023/04/02 10:15:22;;;;;;;2.22;0.70;;;13.60;1.00;;;;;;5055675;28;20087;-80
2023/04/02 10:18:14;;;;;;;4.00;0.75;;;13.70;1.00;;;;;;5071805;28;20040;-80
2023/04/02 10:20:43;;;;;;;2.70;0.90;;;13.90;1.00;;;;;;5046341;28;20052;-80
2023/04/02 10:23:15;;;;;;;1.58;0.73;;;14.00;1.00;;;;;;5056153;28;20048;-80
2023/04/02 10:26:03;;;;;;;2.17;0.88;;;14.50;1.00;;;;;;5074669;28;20105;-80
2023/04/02 10:28:54;;;;;;;1.83;0.60;;;15.00;1.00;;;;;;5062983;28;20055;-79
2023/04/02 10:31:28;;;;;;;1.42;0.73;;;14.60;1.00;;;;;;5062546;28;20040;-79
2023/04/02 10:34:03;;;;;;;3.30;0.85;;;13.80;1.00;;;;;;5065129;28;20058;-79
2023/04/02 10:36:47;;;;;;;2.20;0.65;;;13.90;1.00;;;;;;5046421;28;20436;-78
2023/04/02 10:39:39;;;;;;;4.50;0.90;;;14.50;1.00;;;;;;5071019;28;20746;-78
2023/04/02 10:42:15;;;;;;;1.85;0.50;;;14.90;1.00;;;;;;5073086;28;20400;-79
2023/04/02 10:45:15;;;;;;;4.00;0.93;;;15.50;1.00;;;;;;5079800;28;20121;-78
2023/04/02 10:48:08;;;;;;;3.80;0.80;;;15.90;1.00;;;;;;5060734;28;20056;-80
2023/04/02 10:50:59;;;;;;;2.65;0.80;;;16.50;1.00;;;;;;5066595;28;20515;-79
2023/04/02 10:53:51;;;;;;;4.68;1.10;;;17.00;1.00;;;;;;5060964;28;20427;-79
2023/04/02 10:56:17;;;;;;;4.55;1.42;;;17.50;1.00;;;;;;5061511;28;20052;-81
2023/04/02 10:59:02;;;;;;;2.65;1.27;;;17.90;1.00;;;;;;5051951;28;20056;-79
2023/04/02 11:01:29;;;;;;;2.45;1.00;;;18.30;1.00;;;;;;5051944;28;20710;-80
2023/04/02 11:04:16;;;;;;;2.25;0.90;;;18.70;1.00;;;;;;5068392;28;20108;-80
2023/04/02 11:06:49;;;;;;;3.22;1.50;;;19.00;1.00;;;;;;5073184;28;20141;-80
2023/04/02 11:09:19;;;;;;;3.72;1.02;;;19.00;1.00;;;;;;5081244;28;20044;-80
2023/04/02 11:11:49;;;;;;;3.05;0.70;;;18.80;1.00;;;;;;5074853;28;20035;-80
2023/04/02 11:14:23;;;;;;;2.90;0.90;;;18.70;1.00;;;;;;5078005;28;20046;-80
2023/04/02 11:16:50;;;;;;;2.58;0.77;;;18.10;1.00;;;;;;5060165;28;20052;-77
2023/04/02 11:19:16;;;;;;;2.70;0.70;;;17.90;1.00;;;;;;5083196;28;20508;-81
2023/04/02 11:21:46;;;;;;;4.30;0.75;;;17.70;1.00;;;;;;5069993;28;20040;-81
2023/04/02 11:24:35;;;;;;;4.50;0.98;;;17.50;1.00;;;;;;5049159;28;20056;-83
2023/04/02 11:27:06;;;;;;;4.28;0.70;;;18.00;1.00;;;;;;5059707;28;20075;-80
2023/04/02 11:29:33;;;;;;;3.55;0.85;;;18.40;1.00;;;;;;5064744;28;20085;-81
2023/04/02 11:32:23;;;;;;;2.50;0.70;;;18.30;1.00;;;;;;5033814;28;20041;-81
2023/04/02 11:34:58;;;;;;;3.85;0.93;;;17.70;1.00;;;;;;5050167;28;20052;-80
2023/04/02 11:37:43;;;;;;;2.03;0.60;;;17.30;1.00;;;;;;5049015;28;20056;-81
2023/04/02 11:40:14;;;;;;;1.92;0.65;;;17.40;1.00;;;;;;5065968;28;20044;-81
2023/04/02 11:42:42;;;;;;;2.28;0.60;;;17.10;1.00;;;;;;5066376;28;20066;-80
2023/04/02 11:45:22;;;;;;;1.92;0.60;;;17.40;1.00;;;;;;5064037;28;20047;-80
2023/04/02 11:48:01;;;;;;;1.40;0.75;;;18.20;1.00;;;;;;5067684;28;20044;-80
2023/04/02 11:50:34;;;;;;;5.72;1.02;;;18.50;1.00;;;;;;5065349;28;20052;-82
2023/04/02 11:53:09;;;;;;;1.92;0.60;;;18.60;1.00;;;;;;5069040;28;20107;-80
2023/04/02 11:55:36;;;;;;;2.88;0.80;;;18.70;1.00;;;;;;5052466;28;20155;-80
2023/04/02 11:58:23;;;;;;;2.08;1.00;;;19.20;1.00;;;;;;5090066;28;20078;-80
2023/04/02 12:01:19;;;;;;;1.83;0.50;;;19.70;1.00;;;;;;5085556;28;20044;-80
2023/04/02 12:04:09;;;;;;;1.90;0.60;;;19.40;1.00;;;;;;5064714;28;20048;-80
2023/04/02 12:07:09;;;;;;;1.30;0.70;;;19.30;1.00;;;;;;5081189;28;20126;-80
2023/04/02 12:09:49;;;;;;;2.47;0.63;;;19.40;1.00;;;;;;5073899;28;20036;-80
2023/04/02 12:12:47;;;;;;;2.20;0.68;;;19.60;1.00;;;;;;5071017;28;20713;-80
2023/04/02 12:15:45;;;;;;;2.72;0.70;;;19.90;1.00;;;;;;5033890;28;20056;-81
2023/04/02 12:18:20;;;;;;;2.35;0.63;;;20.20;1.00;;;;;;5085402;28;20091;-80
2023/04/02 12:20:51;;;;;;;2.13;0.60;;;20.30;1.00;;;;;;5053341;28;20052;-80
2023/04/02 12:23:20;;;;;;;0.80;0.40;;;20.40;1.00;;;;;;5081176;28;20052;-81
2023/04/02 12:25:59;;;;;;;1.52;0.50;;;20.70;1.00;;;;;;5053955;28;20044;-81
2023/04/02 12:28:29;;;;;;;3.72;0.60;;;21.10;1.00;;;;;;5062351;28;20126;-81
2023/04/02 12:31:12;;;;;;;1.45;0.70;;;21.60;1.00;;;;;;5052626;28;20067;-82
2023/04/02 12:33:39;;;;;;;1.70;0.60;;;22.10;1.00;;;;;;5080374;28;20550;-81
2023/04/02 12:36:16;;;;;;;1.85;0.80;;;22.10;1.00;;;;;;5087206;28;20042;-82
2023/04/02 12:38:55;;;;;;;1.98;0.60;;;21.50;1.00;;;;;;5068560;28;20131;-81
2023/04/02 12:41:28;;;;;;;3.30;1.10;;;20.70;1.00;;;;;;5058473;28;20101;-81
2023/04/02 12:44:00;;;;;;;1.90;0.60;;;19.60;1.00;;;;;;5086763;28;20489;-80
2023/04/02 12:46:28;;;;;;;1.42;0.50;;;17.80;1.00;;;;;;5051531;28;20452;-82
2023/04/02 12:49:15;;;;;;;2.13;0.60;;;16.90;1.00;;;;;;5079484;28;20510;-78
2023/04/02 12:51:41;;;;;;;1.05;0.50;;;17.40;1.00;;;;;;5067819;28;20044;-79
2023/04/02 12:54:14;;;;;;;2.55;0.60;;;18.70;1.00;;;;;;5053979;28;20047;-82
2023/04/02 12:56:40;;;;;;;3.20;0.60;;;19.70;1.00;;;;;;5080656;28;20434;-82
2023/04/02 12:59:29;;;;;;;1.85;0.65;;;20.30;1.00;;;;;;5032704;28;20084;-81
2023/04/02 13:01:58;;;;;;;1.98;0.65;;;20.50;1.00;;;;;;5048222;28;20143;-82
2023/04/02 13:04:24;;;;;;;1.05;0.52;;;21.10;1.00;;;;;;5061212;28;20464;-82
2023/04/02 13:06:53;;;;;;;1.90;0.80;;;21.20;1.00;;;;;;5044244;28;20574;-82
2023/04/02 13:09:40;;;;;;;3.25;1.30;;;21.20;1.00;;;;;;5038498;28;20045;-82
2023/04/02 13:12:06;;;;;;;2.75;1.23;;;21.60;1.00;;;;;;5054615;28;20440;-82
2023/04/02 13:14:32;;;;;;;1.63;0.70;;;21.90;1.00;;;;;;5052459;28;20056;-82
2023/04/02 13:16:57;;;;;;;1.35;0.50;;;21.90;1.00;;;;;;5054546;28;20041;-82
2023/04/02 13:19:30;;;;;;;2.30;0.75;;;21.80;1.00;;;;;;5050028;28;20052;-82
2023/04/02 13:21:58;;;;;;;2.17;0.40;;;21.70;1.00;;;;;;5063030;28;20406;-82
2023/04/02 13:24:29;;;;;;;1.80;0.50;;;22.00;1.00;;;;;;5069168;28;20040;-82
2023/04/02 13:27:02;;;;;;;2.08;0.50;;;22.00;1.00;;;;;;5054511;28;20131;-82
2023/04/02 13:29:35;;;;;;;0.98;0.50;;;21.50;1.00;;;;;;5086974;28;20494;-82
2023/04/02 13:32:10;;;;;;;1.42;0.60;;;20.00;1.00;;;;;;5054012;28;20098;-82
2023/04/02 13:34:36;;;;;;;2.55;0.70;;;18.90;1.00;;;;;;5056399;28;20650;-82
2023/04/02 13:37:02;;;;;;;1.00;0.75;;;18.60;1.00;;;;;;5037738;28;20048;-82
2023/04/02 13:39:29;;;;;;;0.70;0.47;;;18.70;1.00;;;;;;5017827;28;20128;-82
2023/04/02 13:41:57;;;;;;;0.98;0.45;;;19.50;1.00;;;;;;5034251;28;20041;-82